sensor_id;sensor_type;location;lat;lon;timestamp;P1;durP1;ratioP1;P2;durP2;ratioP2
20369;SDS011;10344;47.592;9.600;2023-10-19T04:42:54;15.55;;;11.75;;
20369;SDS011;10344;47.592;9.600;2023-10-19T07:33:06;12.27;;;10.65;;
20369;SDS011;10344;47.592;9.600;2023-10-19T07:35:35;12.38;;;10.68;;
20369;SDS011;10344;47.592;9.600;2023-10-19T07:38:07;12.60;;;10.23;;
20369;SDS011;10344;47.592;9.600;2023-10-19T07:40:35;12.05;;;9.55;;
20369;SDS011;10344;47.592;9.600;2023-10-19T07:43:01;12.40;;;10.30;;
20369;SDS011;10344;47.592;9.600;2023-10-19T07:45:28;11.60;;;9.80;;
20369;SDS011;10344;47.592;9.600;2023-10-19T07:47:57;13.00;;;10.67;;
20369;SDS011;10344;47.592;9.600;2023-10-19T07:50:31;12.82;;;10.27;;
20369;SDS011;10344;47.592;9.600;2023-10-19T07:52:59;11.38;;;9.70;;
20369;SDS011;10344;47.592;9.600;2023-10-19T07:55:28;12.90;;;10.82;;
20369;SDS011;10344;47.592;9.600;2023-10-19T08:12:48;11.82;;;10.15;;
20369;SDS011;10344;47.592;9.600;2023-10-19T08:15:20;11.18;;;9.98;;
20369;SDS011;10344;47.592;9.600;2023-10-19T08:17:46;11.90;;;10.07;;
20369;SDS011;10344;47.592;9.600;2023-10-19T08:20:16;12.43;;;10.10;;
20369;SDS011;10344;47.592;9.600;2023-10-19T08:22:48;10.63;;;9.35;;
20369;SDS011;10344;47.592;9.600;2023-10-19T08:25:14;13.10;;;10.80;;
20369;SDS011;10344;47.592;9.600;2023-10-19T08:27:44;11.50;;;9.77;;
20369;SDS011;10344;47.592;9.600;2023-10-19T08:30:13;12.65;;;10.90;;
20369;SDS011;10344;47.592;9.600;2023-10-19T08:32:43;11.48;;;9.52;;
20369;SDS011;10344;47.592;9.600;2023-10-19T08:35:13;11.77;;;10.25;;
20369;SDS011;10344;47.592;9.600;2023-10-19T08:37:45;12.05;;;9.50;;
20369;SDS011;10344;47.592;9.600;2023-10-19T08:40:13;11.68;;;10.00;;
20369;SDS011;10344;47.592;9.600;2023-10-19T08:42:45;13.73;;;10.82;;
20369;SDS011;10344;47.592;9.600;2023-10-19T08:45:14;11.03;;;9.80;;
20369;SDS011;10344;47.592;9.600;2023-10-19T08:47:59;13.07;;;10.20;;
20369;SDS011;10344;47.592;9.600;2023-10-19T08:50:30;10.27;;;8.27;;
20369;SDS011;10344;47.592;9.600;2023-10-19T08:52:59;11.85;;;9.13;;
20369;SDS011;10344;47.592;9.600;2023-10-19T08:55:30;13.32;;;9.05;;
20369;SDS011;10344;47.592;9.600;2023-10-19T08:57:57;10.60;;;8.43;;
20369;SDS011;10344;47.592;9.600;2023-10-19T09:00:26;11.55;;;8.48;;
20369;SDS011;10344;47.592;9.600;2023-10-19T09:02:52;10.45;;;8.90;;
20369;SDS011;10344;47.592;9.600;2023-10-19T09:05:19;9.65;;;7.95;;
20369;SDS011;10344;47.592;9.600;2023-10-19T09:07:47;9.30;;;7.80;;
20369;SDS011;10344;47.592;9.600;2023-10-19T09:10:19;8.65;;;7.75;;
20369;SDS011;10344;47.592;9.600;2023-10-19T09:12:56;9.15;;;7.57;;
20369;SDS011;10344;47.592;9.600;2023-10-19T09:15:27;8.80;;;7.38;;
20369;SDS011;10344;47.592;9.600;2023-10-19T09:20:41;8.52;;;7.10;;
20369;SDS011;10344;47.592;9.600;2023-10-19T09:23:18;9.10;;;7.38;;
20369;SDS011;10344;47.592;9.600;2023-10-19T09:25:50;9.82;;;8.00;;
20369;SDS011;10344;47.592;9.600;2023-10-19T09:28:20;9.03;;;7.77;;
20369;SDS011;10344;47.592;9.600;2023-10-19T09:30:47;9.50;;;7.80;;
20369;SDS011;10344;47.592;9.600;2023-10-19T10:15:57;6.95;;;6.13;;
20369;SDS011;10344;47.592;9.600;2023-10-19T10:18:25;6.47;;;5.50;;
20369;SDS011;10344;47.592;9.600;2023-10-19T10:23:43;9.45;;;6.22;;
20369;SDS011;10344;47.592;9.600;2023-10-19T10:26:10;9.52;;;7.50;;
20369;SDS011;10344;47.592;9.600;2023-10-19T10:28:38;9.05;;;6.97;;
20369;SDS011;10344;47.592;9.600;2023-10-19T10:31:08;8.75;;;7.57;;
20369;SDS011;10344;47.592;9.600;2023-10-19T10:33:47;8.27;;;6.67;;
20369;SDS011;10344;47.592;9.600;2023-10-19T10:36:15;11.60;;;10.40;;
20369;SDS011;10344;47.592;9.600;2023-10-19T10:38:48;11.25;;;9.75;;
20369;SDS011;10344;47.592;9.600;2023-10-19T10:43:50;10.43;;;9.32;;
20369;SDS011;10344;47.592;9.600;2023-10-19T10:46:23;11.35;;;8.88;;
20369;SDS011;10344;47.592;9.600;2023-10-19T10:48:52;11.83;;;10.13;;
20369;SDS011;10344;47.592;9.600;2023-10-19T10:51:24;12.10;;;10.00;;
20369;SDS011;10344;47.592;9.600;2023-10-19T10:53:54;13.32;;;11.40;;
20369;SDS011;10344;47.592;9.600;2023-10-19T10:56:25;10.43;;;9.20;;
20369;SDS011;10344;47.592;9.600;2023-10-19T10:58:50;9.65;;;8.20;;
20369;SDS011;10344;47.592;9.600;2023-10-19T11:01:29;8.88;;;7.50;;
20369;SDS011;10344;47.592;9.600;2023-10-19T11:04:07;9.30;;;7.88;;
20369;SDS011;10344;47.592;9.600;2023-10-19T11:06:51;10.60;;;9.48;;
20369;SDS011;10344;47.592;9.600;2023-10-19T11:09:22;10.18;;;8.30;;
20369;SDS011;10344;47.592;9.600;2023-10-19T11:11:48;11.15;;;8.35;;
20369;SDS011;10344;47.592;9.600;2023-10-19T11:14:19;9.43;;;8.38;;
20369;SDS011;10344;47.592;9.600;2023-10-19T11:16:48;12.35;;;9.50;;
20369;SDS011;10344;47.592;9.600;2023-10-19T11:19:14;10.20;;;8.98;;
20369;SDS011;10344;47.592;9.600;2023-10-19T11:21:51;11.13;;;9.80;;
20369;SDS011;10344;47.592;9.600;2023-10-19T11:24:25;9.60;;;8.55;;
20369;SDS011;10344;47.592;9.600;2023-10-19T11:26:57;9.15;;;7.20;;
20369;SDS011;10344;47.592;9.600;2023-10-19T11:29:25;10.73;;;7.13;;
20369;SDS011;10344;47.592;9.600;2023-10-19T11:32:00;8.68;;;6.70;;
20369;SDS011;10344;47.592;9.600;2023-10-19T11:34:28;7.88;;;5.95;;
20369;SDS011;10344;47.592;9.600;2023-10-19T11:36:57;8.60;;;6.18;;
20369;SDS011;10344;47.592;9.600;2023-10-19T11:39:25;7.30;;;5.83;;
20369;SDS011;10344;47.592;9.600;2023-10-19T11:41:53;7.60;;;6.80;;
20369;SDS011;10344;47.592;9.600;2023-10-19T11:44:19;7.37;;;6.07;;
20369;SDS011;10344;47.592;9.600;2023-10-19T11:46:47;8.05;;;6.63;;
20369;SDS011;10344;47.592;9.600;2023-10-19T11:49:13;7.53;;;6.37;;
20369;SDS011;10344;47.592;9.600;2023-10-19T11:51:39;7.07;;;5.77;;
20369;SDS011;10344;47.592;9.600;2023-10-19T11:54:08;8.30;;;5.95;;
20369;SDS011;10344;47.592;9.600;2023-10-19T11:56:35;7.93;;;6.80;;
20369;SDS011;10344;47.592;9.600;2023-10-19T11:59:01;8.50;;;7.43;;
20369;SDS011;10344;47.592;9.600;2023-10-19T12:01:27;9.65;;;7.05;;
20369;SDS011;10344;47.592;9.600;2023-10-19T12:03:54;8.90;;;7.07;;
20369;SDS011;10344;47.592;9.600;2023-10-19T12:06:22;8.33;;;6.40;;
20369;SDS011;10344;47.592;9.600;2023-10-19T12:08:48;8.60;;;6.72;;
20369;SDS011;10344;47.592;9.600;2023-10-19T12:11:14;7.93;;;6.90;;
20369;SDS011;10344;47.592;9.600;2023-10-19T12:13:41;9.17;;;6.67;;
20369;SDS011;10344;47.592;9.600;2023-10-19T12:16:10;9.10;;;7.10;;
20369;SDS011;10344;47.592;9.600;2023-10-19T12:18:38;7.70;;;6.07;;
20369;SDS011;10344;47.592;9.600;2023-10-19T12:21:04;7.78;;;6.68;;
20369;SDS011;10344;47.592;9.600;2023-10-19T12:23:39;8.02;;;6.50;;
20369;SDS011;10344;47.592;9.600;2023-10-19T12:26:08;7.90;;;6.45;;
20369;SDS011;10344;47.592;9.600;2023-10-19T12:28:37;8.57;;;7.15;;
20369;SDS011;10344;47.592;9.600;2023-10-19T12:31:04;8.35;;;6.88;;
20369;SDS011;10344;47.592;9.600;2023-10-19T12:33:34;10.30;;;7.13;;
20369;SDS011;10344;47.592;9.600;2023-10-19T12:36:03;7.55;;;6.55;;
20369;SDS011;10344;47.592;9.600;2023-10-19T12:38:52;8.37;;;6.40;;
20369;SDS011;10344;47.592;9.600;2023-10-19T12:41:18;7.35;;;6.55;;
20369;SDS011;10344;47.592;9.600;2023-10-19T12:43:47;8.35;;;7.28;;
20369;SDS011;10344;47.592;9.600;2023-10-19T12:46:15;9.50;;;7.93;;
20369;SDS011;10344;47.592;9.600;2023-10-19T12:48:41;8.52;;;7.13;;
20369;SDS011;10344;47.592;9.600;2023-10-19T12:51:07;8.80;;;7.03;;
20369;SDS011;10344;47.592;9.600;2023-10-19T12:53:36;8.82;;;6.88;;
20369;SDS011;10344;47.592;9.600;2023-10-19T12:56:04;10.33;;;9.20;;
20369;SDS011;10344;47.592;9.600;2023-10-19T12:58:31;11.77;;;9.07;;
20369;SDS011;10344;47.592;9.600;2023-10-19T13:00:57;8.00;;;7.18;;
20369;SDS011;10344;47.592;9.600;2023-10-19T13:03:23;11.48;;;9.93;;
20369;SDS011;10344;47.592;9.600;2023-10-19T13:05:54;11.67;;;10.20;;
20369;SDS011;10344;47.592;9.600;2023-10-19T13:08:22;12.70;;;10.57;;
20369;SDS011;10344;47.592;9.600;2023-10-19T13:10:52;12.32;;;10.40;;
20369;SDS011;10344;47.592;9.600;2023-10-19T13:13:21;13.93;;;10.75;;
20369;SDS011;10344;47.592;9.600;2023-10-19T13:15:49;13.38;;;11.00;;
20369;SDS011;10344;47.592;9.600;2023-10-19T13:18:15;12.85;;;10.60;;
20369;SDS011;10344;47.592;9.600;2023-10-19T13:20:47;13.10;;;10.52;;
20369;SDS011;10344;47.592;9.600;2023-10-19T13:23:13;12.65;;;9.00;;
20369;SDS011;10344;47.592;9.600;2023-10-19T13:25:46;14.25;;;10.85;;
20369;SDS011;10344;47.592;9.600;2023-10-19T13:28:18;13.45;;;10.48;;
20369;SDS011;10344;47.592;9.600;2023-10-19T13:30:46;14.27;;;11.00;;
20369;SDS011;10344;47.592;9.600;2023-10-19T13:33:13;14.30;;;10.30;;
20369;SDS011;10344;47.592;9.600;2023-10-19T13:35:39;13.20;;;10.32;;
20369;SDS011;10344;47.592;9.600;2023-10-19T13:38:09;13.30;;;10.85;;
20369;SDS011;10344;47.592;9.600;2023-10-19T13:40:36;11.67;;;9.90;;
20369;SDS011;10344;47.592;9.600;2023-10-19T13:43:06;11.00;;;9.52;;
20369;SDS011;10344;47.592;9.600;2023-10-19T13:45:39;12.23;;;9.93;;
20369;SDS011;10344;47.592;9.600;2023-10-19T13:48:05;13.27;;;11.07;;
20369;SDS011;10344;47.592;9.600;2023-10-19T13:50:34;11.73;;;9.15;;
20369;SDS011;10344;47.592;9.600;2023-10-19T13:53:00;12.45;;;9.93;;
20369;SDS011;10344;47.592;9.600;2023-10-19T13:55:30;12.23;;;10.32;;
20369;SDS011;10344;47.592;9.600;2023-10-19T13:57:56;13.10;;;10.77;;
20369;SDS011;10344;47.592;9.600;2023-10-19T14:00:23;13.93;;;10.43;;
20369;SDS011;10344;47.592;9.600;2023-10-19T14:03:09;12.68;;;10.07;;
20369;SDS011;10344;47.592;9.600;2023-10-19T14:08:04;11.32;;;9.15;;
20369;SDS011;10344;47.592;9.600;2023-10-19T14:10:31;12.02;;;10.07;;
20369;SDS011;10344;47.592;9.600;2023-10-19T14:12:59;10.07;;;8.25;;
20369;SDS011;10344;47.592;9.600;2023-10-19T14:15:27;10.35;;;8.55;;
20369;SDS011;10344;47.592;9.600;2023-10-19T14:18:01;11.68;;;9.75;;
20369;SDS011;10344;47.592;9.600;2023-10-19T14:20:30;11.27;;;9.00;;
20369;SDS011;10344;47.592;9.600;2023-10-19T14:22:56;9.65;;;7.65;;
20369;SDS011;10344;47.592;9.600;2023-10-19T14:25:23;8.05;;;6.68;;
20369;SDS011;10344;47.592;9.600;2023-10-19T14:27:50;10.15;;;8.57;;
20369;SDS011;10344;47.592;9.600;2023-10-19T14:30:24;12.00;;;9.10;;
20369;SDS011;10344;47.592;9.600;2023-10-19T14:32:50;10.00;;;8.48;;
20369;SDS011;10344;47.592;9.600;2023-10-19T14:35:22;11.65;;;9.68;;
20369;SDS011;10344;47.592;9.600;2023-10-19T14:37:51;11.48;;;9.68;;
20369;SDS011;10344;47.592;9.600;2023-10-19T14:40:20;11.53;;;9.33;;
20369;SDS011;10344;47.592;9.600;2023-10-19T14:42:56;10.75;;;8.40;;
20369;SDS011;10344;47.592;9.600;2023-10-19T14:45:26;9.95;;;8.52;;
20369;SDS011;10344;47.592;9.600;2023-10-19T14:47:56;9.10;;;7.75;;
20369;SDS011;10344;47.592;9.600;2023-10-19T14:50:24;9.73;;;7.25;;
20369;SDS011;10344;47.592;9.600;2023-10-19T14:52:52;9.03;;;6.97;;
20369;SDS011;10344;47.592;9.600;2023-10-19T14:55:22;6.72;;;6.03;;
20369;SDS011;10344;47.592;9.600;2023-10-19T14:57:49;6.95;;;6.07;;
20369;SDS011;10344;47.592;9.600;2023-10-19T15:00:19;7.22;;;5.78;;
20369;SDS011;10344;47.592;9.600;2023-10-19T15:02:46;9.07;;;7.30;;
20369;SDS011;10344;47.592;9.600;2023-10-19T15:05:15;9.77;;;7.68;;
20369;SDS011;10344;47.592;9.600;2023-10-19T15:07:48;7.10;;;6.38;;
20369;SDS011;10344;47.592;9.600;2023-10-19T15:10:22;8.02;;;6.43;;
20369;SDS011;10344;47.592;9.600;2023-10-19T15:12:53;9.27;;;7.57;;
20369;SDS011;10344;47.592;9.600;2023-10-19T15:15:19;6.55;;;5.85;;
20369;SDS011;10344;47.592;9.600;2023-10-19T15:17:48;6.70;;;5.20;;
20369;SDS011;10344;47.592;9.600;2023-10-19T15:20:18;6.25;;;5.55;;
20369;SDS011;10344;47.592;9.600;2023-10-19T15:22:50;6.85;;;5.22;;
20369;SDS011;10344;47.592;9.600;2023-10-19T15:25:16;6.13;;;4.75;;
20369;SDS011;10344;47.592;9.600;2023-10-19T15:27:45;5.97;;;5.38;;
20369;SDS011;10344;47.592;9.600;2023-10-19T15:30:13;7.60;;;5.95;;
20369;SDS011;10344;47.592;9.600;2023-10-19T15:32:42;6.03;;;5.20;;
20369;SDS011;10344;47.592;9.600;2023-10-19T15:35:12;5.30;;;4.60;;
20369;SDS011;10344;47.592;9.600;2023-10-19T15:37:44;6.47;;;5.25;;
20369;SDS011;10344;47.592;9.600;2023-10-19T15:40:13;5.70;;;5.07;;
20369;SDS011;10344;47.592;9.600;2023-10-19T15:42:41;6.18;;;4.88;;
20369;SDS011;10344;47.592;9.600;2023-10-19T15:45:13;7.00;;;5.65;;
20369;SDS011;10344;47.592;9.600;2023-10-19T15:47:43;6.00;;;5.40;;
20369;SDS011;10344;47.592;9.600;2023-10-19T15:50:08;6.50;;;5.80;;
20369;SDS011;10344;47.592;9.600;2023-10-19T15:52:37;6.43;;;5.55;;
20369;SDS011;10344;47.592;9.600;2023-10-19T15:55:07;6.78;;;5.70;;
20369;SDS011;10344;47.592;9.600;2023-10-19T15:57:34;6.38;;;5.30;;
20369;SDS011;10344;47.592;9.600;2023-10-19T16:00:02;6.75;;;5.60;;
20369;SDS011;10344;47.592;9.600;2023-10-19T16:02:28;7.00;;;5.23;;
20369;SDS011;10344;47.592;9.600;2023-10-19T16:04:54;8.87;;;6.20;;
20369;SDS011;10344;47.592;9.600;2023-10-19T16:07:22;13.10;;;11.65;;
20369;SDS011;10344;47.592;9.600;2023-10-19T16:09:47;11.33;;;9.67;;
20369;SDS011;10344;47.592;9.600;2023-10-19T16:12:13;8.80;;;7.90;;
20369;SDS011;10344;47.592;9.600;2023-10-19T16:14:41;10.18;;;8.70;;
20369;SDS011;10344;47.592;9.600;2023-10-19T16:17:08;11.30;;;8.82;;
20369;SDS011;10344;47.592;9.600;2023-10-19T16:19:38;9.30;;;7.72;;
20369;SDS011;10344;47.592;9.600;2023-10-19T16:22:04;9.47;;;7.63;;
20369;SDS011;10344;47.592;9.600;2023-10-19T16:24:30;10.23;;;8.27;;
20369;SDS011;10344;47.592;9.600;2023-10-19T16:26:55;9.80;;;8.30;;
20369;SDS011;10344;47.592;9.600;2023-10-19T16:29:21;12.27;;;9.85;;
20369;SDS011;10344;47.592;9.600;2023-10-19T16:31:47;10.83;;;9.13;;
20369;SDS011;10344;47.592;9.600;2023-10-19T16:34:14;10.02;;;8.55;;
20369;SDS011;10344;47.592;9.600;2023-10-19T16:36:42;10.45;;;9.00;;
20369;SDS011;10344;47.592;9.600;2023-10-19T16:39:10;9.90;;;8.75;;
20369;SDS011;10344;47.592;9.600;2023-10-19T16:41:43;12.77;;;10.13;;
20369;SDS011;10344;47.592;9.600;2023-10-19T16:44:10;16.30;;;11.93;;
20369;SDS011;10344;47.592;9.600;2023-10-19T16:46:38;13.32;;;11.02;;
20369;SDS011;10344;47.592;9.600;2023-10-19T16:49:04;11.57;;;10.37;;
20369;SDS011;10344;47.592;9.600;2023-10-19T16:51:33;12.98;;;10.50;;
20369;SDS011;10344;47.592;9.600;2023-10-19T16:54:13;13.33;;;10.33;;
20369;SDS011;10344;47.592;9.600;2023-10-19T16:56:40;10.13;;;9.03;;
20369;SDS011;10344;47.592;9.600;2023-10-19T16:59:11;9.63;;;8.13;;
20369;SDS011;10344;47.592;9.600;2023-10-19T17:01:40;11.43;;;8.88;;
20369;SDS011;10344;47.592;9.600;2023-10-19T17:04:06;12.63;;;10.43;;
20369;SDS011;10344;47.592;9.600;2023-10-19T17:06:39;9.65;;;8.65;;
20369;SDS011;10344;47.592;9.600;2023-10-19T17:09:13;11.52;;;8.80;;
20369;SDS011;10344;47.592;9.600;2023-10-19T17:11:46;10.20;;;8.38;;
20369;SDS011;10344;47.592;9.600;2023-10-19T17:14:17;11.80;;;8.75;;
20369;SDS011;10344;47.592;9.600;2023-10-19T17:16:43;10.45;;;9.35;;
20369;SDS011;10344;47.592;9.600;2023-10-19T17:19:09;12.48;;;9.70;;
20369;SDS011;10344;47.592;9.600;2023-10-19T17:21:35;10.48;;;8.07;;
20369;SDS011;10344;47.592;9.600;2023-10-19T17:24:04;8.70;;;7.15;;
20369;SDS011;10344;47.592;9.600;2023-10-19T17:26:30;8.63;;;7.60;;
20369;SDS011;10344;47.592;9.600;2023-10-19T17:28:58;10.50;;;7.45;;
20369;SDS011;10344;47.592;9.600;2023-10-19T17:31:24;8.75;;;6.93;;
20369;SDS011;10344;47.592;9.600;2023-10-19T17:33:50;7.38;;;6.53;;
20369;SDS011;10344;47.592;9.600;2023-10-19T17:36:20;6.78;;;5.75;;
20369;SDS011;10344;47.592;9.600;2023-10-19T17:38:48;7.37;;;5.47;;
20369;SDS011;10344;47.592;9.600;2023-10-19T17:41:14;5.00;;;4.18;;
20369;SDS011;10344;47.592;9.600;2023-10-19T17:43:43;4.45;;;3.78;;
20369;SDS011;10344;47.592;9.600;2023-10-19T17:46:08;5.93;;;4.80;;
20369;SDS011;10344;47.592;9.600;2023-10-19T17:48:37;6.38;;;5.10;;
20369;SDS011;10344;47.592;9.600;2023-10-19T17:51:11;8.73;;;5.90;;
20369;SDS011;10344;47.592;9.600;2023-10-19T17:53:38;8.35;;;5.68;;
20369;SDS011;10344;47.592;9.600;2023-10-19T17:56:07;5.85;;;3.80;;
20369;SDS011;10344;47.592;9.600;2023-10-19T17:58:33;3.40;;;2.97;;
20369;SDS011;10344;47.592;9.600;2023-10-19T18:01:02;3.80;;;2.40;;
20369;SDS011;10344;47.592;9.600;2023-10-19T18:03:34;4.27;;;2.30;;
20369;SDS011;10344;47.592;9.600;2023-10-19T18:06:05;2.20;;;1.90;;
20369;SDS011;10344;47.592;9.600;2023-10-19T18:08:32;2.88;;;1.90;;
20369;SDS011;10344;47.592;9.600;2023-10-19T18:10:58;2.15;;;1.70;;
20369;SDS011;10344;47.592;9.600;2023-10-19T18:13:27;2.63;;;2.10;;
20369;SDS011;10344;47.592;9.600;2023-10-19T18:15:58;2.20;;;2.00;;
20369;SDS011;10344;47.592;9.600;2023-10-19T18:18:29;2.40;;;1.80;;
20369;SDS011;10344;47.592;9.600;2023-10-19T18:20:57;2.20;;;1.80;;
20369;SDS011;10344;47.592;9.600;2023-10-19T18:23:25;1.73;;;1.50;;
20369;SDS011;10344;47.592;9.600;2023-10-19T18:25:51;1.73;;;1.60;;
20369;SDS011;10344;47.592;9.600;2023-10-19T18:28:19;2.10;;;1.70;;
20369;SDS011;10344;47.592;9.600;2023-10-19T18:30:53;3.50;;;2.50;;
20369;SDS011;10344;47.592;9.600;2023-10-19T18:33:20;3.58;;;2.88;;
20369;SDS011;10344;47.592;9.600;2023-10-19T18:35:56;6.50;;;5.07;;
20369;SDS011;10344;47.592;9.600;2023-10-19T18:38:24;6.20;;;4.68;;
20369;SDS011;10344;47.592;9.600;2023-10-19T18:40:59;3.60;;;2.35;;
20369;SDS011;10344;47.592;9.600;2023-10-19T18:43:30;3.50;;;2.70;;
20369;SDS011;10344;47.592;9.600;2023-10-19T18:45:57;3.42;;;1.95;;
20369;SDS011;10344;47.592;9.600;2023-10-19T18:48:26;2.28;;;1.83;;
20369;SDS011;10344;47.592;9.600;2023-10-19T18:50:59;2.92;;;1.85;;
20369;SDS011;10344;47.592;9.600;2023-10-19T18:53:26;2.80;;;1.70;;
20369;SDS011;10344;47.592;9.600;2023-10-19T18:55:55;2.80;;;1.90;;
20369;SDS011;10344;47.592;9.600;2023-10-19T18:58:21;3.08;;;1.90;;
20369;SDS011;10344;47.592;9.600;2023-10-19T19:00:51;2.47;;;1.75;;
20369;SDS011;10344;47.592;9.600;2023-10-19T19:03:21;4.30;;;3.50;;
20369;SDS011;10344;47.592;9.600;2023-10-19T19:05:47;4.53;;;3.38;;
20369;SDS011;10344;47.592;9.600;2023-10-19T19:08:14;3.80;;;2.63;;
20369;SDS011;10344;47.592;9.600;2023-10-19T19:10:43;4.25;;;3.58;;
20369;SDS011;10344;47.592;9.600;2023-10-19T19:13:08;3.47;;;3.03;;
20369;SDS011;10344;47.592;9.600;2023-10-19T19:15:35;4.30;;;3.67;;
20369;SDS011;10344;47.592;9.600;2023-10-19T19:18:01;2.90;;;2.60;;
20369;SDS011;10344;47.592;9.600;2023-10-19T19:20:29;4.22;;;2.60;;
20369;SDS011;10344;47.592;9.600;2023-10-19T19:22:56;4.13;;;2.78;;
20369;SDS011;10344;47.592;9.600;2023-10-19T19:25:22;2.92;;;2.30;;
20369;SDS011;10344;47.592;9.600;2023-10-19T19:27:48;4.28;;;2.95;;
20369;SDS011;10344;47.592;9.600;2023-10-19T19:30:16;4.65;;;3.00;;
20369;SDS011;10344;47.592;9.600;2023-10-19T19:32:48;3.50;;;2.60;;
20369;SDS011;10344;47.592;9.600;2023-10-19T19:35:14;4.80;;;3.10;;
20369;SDS011;10344;47.592;9.600;2023-10-19T19:37:42;2.55;;;2.30;;
20369;SDS011;10344;47.592;9.600;2023-10-19T19:40:09;2.60;;;2.10;;
20369;SDS011;10344;47.592;9.600;2023-10-19T19:42:42;2.83;;;2.00;;
20369;SDS011;10344;47.592;9.600;2023-10-19T19:45:10;3.05;;;2.25;;
20369;SDS011;10344;47.592;9.600;2023-10-19T19:47:39;2.05;;;1.70;;
20369;SDS011;10344;47.592;9.600;2023-10-19T19:50:11;2.40;;;1.90;;
20369;SDS011;10344;47.592;9.600;2023-10-19T19:52:40;3.15;;;2.20;;
20369;SDS011;10344;47.592;9.600;2023-10-19T19:55:07;3.53;;;2.00;;
20369;SDS011;10344;47.592;9.600;2023-10-19T19:57:37;2.63;;;2.33;;
20369;SDS011;10344;47.592;9.600;2023-10-19T20:00:03;3.30;;;2.40;;
20369;SDS011;10344;47.592;9.600;2023-10-19T20:02:38;3.83;;;3.30;;
20369;SDS011;10344;47.592;9.600;2023-10-19T20:05:06;2.88;;;2.65;;
20369;SDS011;10344;47.592;9.600;2023-10-19T20:07:37;3.80;;;2.58;;
20369;SDS011;10344;47.592;9.600;2023-10-19T20:10:04;3.58;;;2.95;;
20369;SDS011;10344;47.592;9.600;2023-10-19T20:12:38;3.55;;;3.00;;
20369;SDS011;10344;47.592;9.600;2023-10-19T20:15:10;3.57;;;3.00;;
20369;SDS011;10344;47.592;9.600;2023-10-19T20:17:40;3.90;;;3.28;;
20369;SDS011;10344;47.592;9.600;2023-10-19T20:20:09;4.00;;;3.20;;
20369;SDS011;10344;47.592;9.600;2023-10-19T20:22:36;4.82;;;3.63;;
20369;SDS011;10344;47.592;9.600;2023-10-19T20:25:02;4.53;;;3.65;;
20369;SDS011;10344;47.592;9.600;2023-10-19T20:27:29;5.30;;;4.32;;
20369;SDS011;10344;47.592;9.600;2023-10-19T20:29:58;5.13;;;4.63;;
20369;SDS011;10344;47.592;9.600;2023-10-19T20:32:27;5.72;;;4.95;;
20369;SDS011;10344;47.592;9.600;2023-10-19T20:34:53;5.70;;;4.78;;
20369;SDS011;10344;47.592;9.600;2023-10-19T20:37:21;6.57;;;5.68;;
20369;SDS011;10344;47.592;9.600;2023-10-19T20:39:46;7.57;;;5.45;;
20369;SDS011;10344;47.592;9.600;2023-10-19T20:42:13;6.50;;;5.47;;
20369;SDS011;10344;47.592;9.600;2023-10-19T20:44:39;6.78;;;5.75;;
20369;SDS011;10344;47.592;9.600;2023-10-19T20:47:06;7.28;;;5.97;;
20369;SDS011;10344;47.592;9.600;2023-10-19T20:49:33;8.00;;;6.83;;
20369;SDS011;10344;47.592;9.600;2023-10-19T20:52:05;8.55;;;6.50;;
20369;SDS011;10344;47.592;9.600;2023-10-19T20:54:36;8.77;;;6.53;;
20369;SDS011;10344;47.592;9.600;2023-10-19T20:57:02;8.80;;;6.97;;
20369;SDS011;10344;47.592;9.600;2023-10-19T20:59:27;8.23;;;6.80;;
20369;SDS011;10344;47.592;9.600;2023-10-19T21:01:53;8.32;;;7.07;;
20369;SDS011;10344;47.592;9.600;2023-10-19T21:04:20;9.48;;;7.85;;
20369;SDS011;10344;47.592;9.600;2023-10-19T21:06:45;9.23;;;8.07;;
20369;SDS011;10344;47.592;9.600;2023-10-19T21:09:14;8.07;;;6.80;;
20369;SDS011;10344;47.592;9.600;2023-10-19T21:11:40;8.32;;;7.43;;
20369;SDS011;10344;47.592;9.600;2023-10-19T21:14:11;8.48;;;6.78;;
20369;SDS011;10344;47.592;9.600;2023-10-19T21:16:37;11.07;;;8.90;;
20369;SDS011;10344;47.592;9.600;2023-10-19T21:19:02;8.98;;;7.60;;
20369;SDS011;10344;47.592;9.600;2023-10-19T21:21:33;9.15;;;7.05;;
20369;SDS011;10344;47.592;9.600;2023-10-19T21:24:01;9.93;;;7.28;;
20369;SDS011;10344;47.592;9.600;2023-10-19T21:26:28;7.80;;;7.00;;
20369;SDS011;10344;47.592;9.600;2023-10-19T21:28:54;10.10;;;8.32;;
20369;SDS011;10344;47.592;9.600;2023-10-19T21:31:23;10.98;;;7.88;;
20369;SDS011;10344;47.592;9.600;2023-10-19T21:33:49;8.47;;;7.13;;
20369;SDS011;10344;47.592;9.600;2023-10-19T21:36:17;6.80;;;6.03;;
20369;SDS011;10344;47.592;9.600;2023-10-19T21:38:42;6.77;;;6.07;;
20369;SDS011;10344;47.592;9.600;2023-10-19T21:41:10;5.32;;;4.80;;
20369;SDS011;10344;47.592;9.600;2023-10-19T21:43:43;5.80;;;4.73;;
20369;SDS011;10344;47.592;9.600;2023-10-19T21:46:08;5.50;;;4.32;;
20369;SDS011;10344;47.592;9.600;2023-10-19T21:48:36;5.93;;;4.00;;
20369;SDS011;10344;47.592;9.600;2023-10-19T21:51:05;4.88;;;4.00;;
20369;SDS011;10344;47.592;9.600;2023-10-19T21:53:31;4.25;;;3.60;;
20369;SDS011;10344;47.592;9.600;2023-10-19T21:55:56;5.20;;;3.70;;
20369;SDS011;10344;47.592;9.600;2023-10-19T21:58:22;4.88;;;3.78;;
20369;SDS011;10344;47.592;9.600;2023-10-19T22:00:48;4.03;;;3.53;;
20369;SDS011;10344;47.592;9.600;2023-10-19T22:03:32;4.10;;;3.30;;
20369;SDS011;10344;47.592;9.600;2023-10-19T22:05:59;4.73;;;3.20;;
20369;SDS011;10344;47.592;9.600;2023-10-19T22:08:28;4.75;;;3.08;;
20369;SDS011;10344;47.592;9.600;2023-10-19T22:10:56;3.53;;;3.10;;
20369;SDS011;10344;47.592;9.600;2023-10-19T22:13:25;5.93;;;2.90;;
20369;SDS011;10344;47.592;9.600;2023-10-19T22:15:53;4.57;;;2.53;;
20369;SDS011;10344;47.592;9.600;2023-10-19T22:18:18;4.07;;;2.60;;
20369;SDS011;10344;47.592;9.600;2023-10-19T22:20:44;2.90;;;2.30;;
20369;SDS011;10344;47.592;9.600;2023-10-19T22:23:12;3.80;;;2.50;;
20369;SDS011;10344;47.592;9.600;2023-10-19T22:25:39;3.55;;;2.47;;
20369;SDS011;10344;47.592;9.600;2023-10-19T22:28:05;3.13;;;2.38;;
20369;SDS011;10344;47.592;9.600;2023-10-19T22:30:33;2.60;;;2.30;;
20369;SDS011;10344;47.592;9.600;2023-10-19T22:32:59;3.60;;;2.38;;
20369;SDS011;10344;47.592;9.600;2023-10-19T22:35:25;2.67;;;2.30;;
20369;SDS011;10344;47.592;9.600;2023-10-19T22:37:54;2.58;;;2.28;;
20369;SDS011;10344;47.592;9.600;2023-10-19T22:40:22;3.10;;;2.40;;
20369;SDS011;10344;47.592;9.600;2023-10-19T22:42:52;2.20;;;2.00;;
20369;SDS011;10344;47.592;9.600;2023-10-19T22:45:20;2.43;;;2.23;;
20369;SDS011;10344;47.592;9.600;2023-10-19T22:47:48;4.90;;;2.88;;
20369;SDS011;10344;47.592;9.600;2023-10-19T22:50:14;2.38;;;2.17;;
20369;SDS011;10344;47.592;9.600;2023-10-19T22:52:41;2.83;;;2.40;;
20369;SDS011;10344;47.592;9.600;2023-10-19T22:55:12;2.30;;;2.00;;
20369;SDS011;10344;47.592;9.600;2023-10-19T22:57:39;2.10;;;1.90;;
20369;SDS011;10344;47.592;9.600;2023-10-19T23:00:08;3.03;;;2.05;;
20369;SDS011;10344;47.592;9.600;2023-10-19T23:02:40;4.10;;;2.70;;
20369;SDS011;10344;47.592;9.600;2023-10-19T23:05:08;3.53;;;2.50;;
20369;SDS011;10344;47.592;9.600;2023-10-19T23:07:37;2.72;;;2.20;;
20369;SDS011;10344;47.592;9.600;2023-10-19T23:10:04;3.22;;;2.10;;
20369;SDS011;10344;47.592;9.600;2023-10-19T23:12:38;4.75;;;2.13;;
20369;SDS011;10344;47.592;9.600;2023-10-19T23:15:06;2.92;;;2.22;;
20369;SDS011;10344;47.592;9.600;2023-10-19T23:17:42;2.15;;;1.98;;
20369;SDS011;10344;47.592;9.600;2023-10-19T23:20:09;1.98;;;1.80;;
20369;SDS011;10344;47.592;9.600;2023-10-19T23:22:52;2.42;;;2.10;;
20369;SDS011;10344;47.592;9.600;2023-10-19T23:25:22;2.80;;;1.90;;
20369;SDS011;10344;47.592;9.600;2023-10-19T23:27:50;2.00;;;1.67;;